Time;durP1;ratioP1;P1;durP2;ratioP2;P2;SDS_P1;SDS_P2;PMS_P1;PMS_P2;Temp;Humidity;BMP_temperature;BMP_pressure;BME280_temperature;BME280_humidity;BME280_pressure;Samples;Min_cycle;Max_cycle;Signal;HPM_P1;HPM_P2
2021/09/23 00:01:30;;;;;;;8.03;7.23;;;;;;;14.25;78.76;97063.75;4977308;28;20209;-53
2021/09/23 00:04:16;;;;;;;10.43;9.33;;;;;;;14.20;79.17;97071.56;4977316;28;20285;-59
2021/09/23 00:06:42;;;;;;;7.40;6.70;;;;;;;14.20;79.06;97076.84;4977847;28;20491;-52
2021/09/23 00:09:07;;;;;;;19.23;7.60;;;;;;;14.20;79.11;97072.34;4977792;28;20422;-59
2021/09/23 00:11:33;;;;;;;8.93;7.43;;;;;;;14.21;79.26;97075.81;4977683;28;20652;-59
2021/09/23 00:13:58;;;;;;;8.53;7.43;;;;;;;14.22;79.38;97075.56;4977367;28;20170;-53
2021/09/23 00:16:24;;;;;;;11.87;8.13;;;;;;;14.29;78.64;97073.63;4977442;28;20206;-51
2021/09/23 00:18:51;;;;;;;14.13;8.93;;;;;;;14.27;78.73;97067.00;4977665;28;20170;-52
2021/09/23 00:21:17;;;;;;;13.63;8.57;;;;;;;14.24;78.94;97062.94;4977244;28;20543;-59
2021/09/23 00:23:43;;;;;;;14.23;8.70;;;;;;;14.26;78.93;97057.41;4977042;28;20552;-59
2021/09/23 00:26:09;;;;;;;11.47;8.27;;;;;;;14.23;79.17;97050.75;4977198;28;20430;-53
2021/09/23 00:28:34;;;;;;;12.43;8.43;;;;;;;14.20;79.56;97050.41;4977666;28;20440;-52
2021/09/23 00:31:00;;;;;;;11.63;8.37;;;;;;;14.24;79.77;97044.41;4976971;28;20181;-52
2021/09/23 00:33:25;;;;;;;10.83;8.00;;;;;;;14.27;79.63;97045.84;4976933;28;20178;-59
2021/09/23 00:35:51;;;;;;;11.43;8.60;;;;;;;14.25;79.60;97030.19;4977197;28;20217;-53
2021/09/23 00:38:16;;;;;;;14.20;7.97;;;;;;;14.22;80.03;97038.56;4977157;28;20265;-59
2021/09/23 00:40:41;;;;;;;8.83;8.00;;;;;;;14.22;80.42;97035.91;4977175;28;20554;-53
2021/09/23 00:43:07;;;;;;;8.57;7.77;;;;;;;14.24;80.67;97035.72;4976568;28;20257;-59
2021/09/23 00:45:33;;;;;;;7.73;6.93;;;;;;;14.27;80.69;97035.28;4975736;28;20209;-59
2021/09/23 00:47:58;;;;;;;7.67;6.97;;;;;;;14.29;81.04;97030.56;4976919;28;20181;-58
2021/09/23 00:50:24;;;;;;;9.07;7.47;;;;;;;14.29;81.10;97030.56;4976977;28;20401;-59
2021/09/23 00:52:50;;;;;;;8.53;7.63;;;;;;;14.32;80.50;97032.72;4976482;28;20257;-59
2021/09/23 00:55:17;;;;;;;12.90;7.50;;;;;;;14.32;80.32;97036.19;4976987;28;20664;-59
2021/09/23 00:57:43;;;;;;;9.73;7.13;;;;;;;14.35;79.82;97030.41;4976693;28;20641;-59
2021/09/23 01:00:11;;;;;;;10.87;7.07;;;;;;;14.41;79.26;97036.63;4976400;28;20540;-59
2021/09/23 01:02:37;;;;;;;14.40;6.63;;;;;;;14.36;79.13;97028.59;4976557;28;20178;-54
2021/09/23 01:05:04;;;;;;;13.67;7.03;;;;;;;14.38;78.96;97026.53;4976654;28;20484;-52
2021/09/23 01:07:30;;;;;;;10.03;6.77;;;;;;;14.33;78.99;97021.91;4976780;28;20633;-52
2021/09/23 01:09:56;;;;;;;9.57;6.00;;;;;;;14.30;79.05;97017.09;4976712;28;20433;-59
2021/09/23 01:12:24;;;;;;;7.17;6.47;;;;;;;14.28;78.55;97013.88;4976719;28;20464;-59
2021/09/23 01:14:50;;;;;;;8.90;6.73;;;;;;;14.27;78.87;97028.16;4975853;28;20441;-59
2021/09/23 01:17:16;;;;;;;7.00;6.30;;;;;;;14.23;78.72;97029.63;4976957;28;20769;-53
2021/09/23 01:19:43;;;;;;;11.60;6.40;;;;;;;14.24;78.47;97031.22;4976507;28;20417;-53
2021/09/23 01:22:10;;;;;;;11.13;6.47;;;;;;;14.28;77.95;97027.09;4976506;28;20421;-52
2021/09/23 01:24:38;;;;;;;8.40;6.30;;;;;;;14.24;77.82;97033.06;4975459;28;20417;-53
2021/09/23 01:27:04;;;;;;;7.90;6.10;;;;;;;14.20;77.80;97029.28;4976415;28;20413;-59
2021/09/23 01:29:30;;;;;;;7.33;6.03;;;;;;;14.14;78.39;97022.25;4976522;28;20414;-59
2021/09/23 01:31:55;;;;;;;8.73;6.53;;;;;;;14.08;77.99;97020.53;4976321;28;20492;-59
2021/09/23 01:34:20;;;;;;;7.83;6.93;;;;;;;14.04;78.20;97020.19;4975888;28;20174;-59
2021/09/23 01:36:46;;;;;;;7.80;6.90;;;;;;;14.10;77.68;97014.00;4975993;28;20197;-56
2021/09/23 01:39:19;;;;;;;7.30;6.17;;;;;;;14.01;78.34;97010.09;4975820;28;20224;-58
2021/09/23 01:41:44;;;;;;;7.13;6.33;;;;;;;14.02;77.83;97018.81;4975627;28;20297;-59
2021/09/23 01:44:10;;;;;;;8.20;7.40;;;;;;;13.95;78.48;97018.94;4975736;28;20520;-52
2021/09/23 01:46:35;;;;;;;7.33;6.10;;;;;;;13.96;77.87;97012.63;4975868;28;20676;-59
2021/09/23 01:49:00;;;;;;;6.50;5.90;;;;;;;13.97;78.29;97019.50;4975955;28;20668;-59
2021/09/23 01:51:26;;;;;;;6.30;5.70;;;;;;;13.85;77.71;97020.53;4975950;28;20565;-59
2021/09/23 01:53:51;;;;;;;6.50;5.90;;;;;;;13.80;78.17;97020.44;4975434;28;20170;-58
2021/09/23 01:56:16;;;;;;;7.87;5.83;;;;;;;13.76;77.83;97014.00;4974968;28;20204;-59
2021/09/23 01:58:42;;;;;;;6.27;5.37;;;;;;;13.83;77.45;97012.03;4975706;28;20198;-52
2021/09/23 02:01:07;;;;;;;5.63;5.13;;;;;;;13.82;76.54;97013.91;4975631;28;20229;-59
2021/09/23 02:03:33;;;;;;;5.63;5.07;;;;;;;13.77;76.59;97007.69;4975353;28;20274;-59
2021/09/23 02:05:58;;;;;;;5.83;5.33;;;;;;;13.72;76.58;97005.72;4975597;28;20664;-59
2021/09/23 02:08:24;;;;;;;8.10;5.40;;;;;;;13.70;77.13;96999.88;4975576;28;20629;-53
2021/09/23 02:10:49;;;;;;;6.93;6.07;;;;;;;13.68;76.82;96990.56;4975351;28;20530;-53
2021/09/23 02:13:14;;;;;;;5.83;5.23;;;;;;;13.66;76.41;97006.63;4975012;28;20532;-53
2021/09/23 02:15:40;;;;;;;5.53;5.03;;;;;;;13.63;76.52;97003.63;4975455;28;20201;-58
2021/09/23 02:18:05;;;;;;;5.00;4.50;;;;;;;13.59;76.46;97002.50;4975007;28;20680;-59
2021/09/23 02:20:30;;;;;;;7.43;4.70;;;;;;;13.52;77.19;96994.69;4975394;28;20715;-52
2021/09/23 02:22:56;;;;;;;5.40;4.90;;;;;;;13.50;76.46;96995.97;4975019;28;20173;-58
2021/09/23 02:25:21;;;;;;;5.53;5.03;;;;;;;13.52;76.88;96988.59;4975288;28;20194;-59
2021/09/23 02:27:47;;;;;;;5.20;4.70;;;;;;;13.52;76.68;96986.75;4975170;28;20170;-52
2021/09/23 02:30:13;;;;;;;5.27;4.83;;;;;;;13.44;77.07;96987.13;4975277;28;20174;-59
2021/09/23 02:32:39;;;;;;;5.90;4.80;;;;;;;13.37;77.36;96981.09;4974485;28;20221;-53
2021/09/23 02:35:05;;;;;;;11.90;6.43;;;;;;;13.34;77.85;96982.38;4975047;28;20187;-59
2021/09/23 02:37:31;;;;;;;6.93;4.77;;;;;;;13.28;78.10;96972.72;4974790;28;20425;-58
2021/09/23 02:39:57;;;;;;;7.27;5.13;;;;;;;13.22;78.14;96971.00;4974836;28;20548;-58
2021/09/23 02:42:23;;;;;;;11.93;5.50;;;;;;;13.27;77.72;96965.84;4975126;28;20174;-52
2021/09/23 02:44:49;;;;;;;5.57;4.90;;;;;;;13.29;77.77;96961.16;4974581;28;20449;-52
2021/09/23 02:47:14;;;;;;;7.33;5.80;;;;;;;13.29;77.40;96961.16;4974770;28;20932;-59
2021/09/23 02:49:40;;;;;;;7.53;5.87;;;;;;;13.27;77.61;96957.13;4974776;28;20175;-59
2021/09/23 02:52:05;;;;;;;7.30;4.97;;;;;;;13.30;77.34;96959.28;4974729;28;20177;-53
2021/09/23 02:54:31;;;;;;;5.07;4.57;;;;;;;13.30;77.42;96956.66;4974555;28;20664;-59
2021/09/23 02:56:56;;;;;;;9.87;5.30;;;;;;;13.25;77.57;96943.34;4974762;28;20170;-52
2021/09/23 02:59:21;;;;;;;8.70;5.73;;;;;;;13.18;78.18;96940.81;4974793;28;20170;-59
2021/09/23 03:01:47;;;;;;;9.63;4.97;;;;;;;13.20;77.53;96936.13;4974404;28;20209;-59
2021/09/23 03:04:13;;;;;;;7.63;5.07;;;;;;;13.21;77.72;96934.28;4974475;28;20174;-59
2021/09/23 03:06:39;;;;;;;6.03;5.40;;;;;;;13.20;78.13;96919.47;4974224;28;20248;-59
2021/09/23 03:09:04;;;;;;;8.20;5.90;;;;;;;13.18;77.93;96918.91;4974464;28;20413;-59
2021/09/23 03:11:30;;;;;;;9.03;6.17;;;;;;;13.25;77.89;96915.13;4974427;28;20213;-53
2021/09/23 03:13:56;;;;;;;6.03;5.50;;;;;;;13.23;78.17;96924.28;4974289;28;20181;-53
2021/09/23 03:16:22;;;;;;;5.97;5.47;;;;;;;13.23;77.98;96924.28;4974411;28;20200;-52
2021/09/23 03:18:47;;;;;;;6.10;5.50;;;;;;;13.21;78.23;96919.25;4974620;28;20410;-59
2021/09/23 03:21:13;;;;;;;13.30;5.50;;;;;;;13.25;77.99;96914.31;4974501;28;20378;-58
2021/09/23 03:23:39;;;;;;;6.23;5.53;;;;;;;13.20;77.90;96919.47;4974294;28;20177;-58
2021/09/23 03:26:05;;;;;;;6.17;5.57;;;;;;;13.17;78.07;96912.81;4973873;28;20202;-53
2021/09/23 03:28:32;;;;;;;6.67;5.63;;;;;;;13.13;78.06;96924.06;4974497;28;20194;-52
2021/09/23 03:30:59;;;;;;;12.60;5.03;;;;;;;13.14;78.15;96923.03;4974302;28;20401;-52
2021/09/23 03:33:24;;;;;;;5.00;4.60;;;;;;;13.10;77.86;96917.41;4974109;28;20398;-53
2021/09/23 03:35:50;;;;;;;7.27;5.37;;;;;;;13.10;77.73;96927.13;4974451;28;20493;-52
2021/09/23 03:38:16;;;;;;;6.73;5.27;;;;;;;13.09;78.11;96915.00;4974642;28;20213;-52
2021/09/23 03:40:45;;;;;;;11.17;5.90;;;;;;;13.07;77.24;96906.50;4973990;28;20208;-59
2021/09/23 03:43:15;;;;;;;6.43;5.43;;;;;;;13.04;77.15;96889.31;4974097;28;20170;-58
2021/09/23 03:45:41;;;;;;;5.70;4.77;;;;;;;13.00;77.24;96893.41;4974278;28;20461;-58
2021/09/23 03:48:07;;;;;;;6.93;5.00;;;;;;;12.97;77.45;96890.41;4974506;28;20417;-59
2021/09/23 03:50:32;;;;;;;7.43;5.77;;;;;;;12.96;77.42;96897.50;4974345;28;20408;-58
2021/09/23 03:52:58;;;;;;;10.80;5.90;;;;;;;12.97;77.37;96893.03;4973848;28;20199;-52
2021/09/23 03:55:23;;;;;;;6.27;4.93;;;;;;;12.93;77.19;96905.06;4972636;28;20211;-53
2021/09/23 03:57:49;;;;;;;5.73;5.23;;;;;;;12.89;77.17;96898.63;4974137;28;20181;-59
2021/09/23 04:00:17;;;;;;;5.97;5.33;;;;;;;12.89;77.12;96894.16;4974239;28;20197;-59
2021/09/23 04:02:43;;;;;;;6.60;5.53;;;;;;;12.87;77.34;96898.06;4973758;28;20170;-58
2021/09/23 04:05:09;;;;;;;6.27;5.30;;;;;;;12.82;77.30;96900.56;4972919;28;20569;-53
2021/09/23 04:07:34;;;;;;;6.03;5.40;;;;;;;12.79;77.79;96893.91;4974070;28;20653;-52
2021/09/23 04:09:59;;;;;;;7.17;5.23;;;;;;;12.76;77.42;96897.00;4973737;28;20178;-59
2021/09/23 04:12:25;;;;;;;7.83;5.27;;;;;;;12.73;78.19;96891.38;4974113;28;20166;-52
2021/09/23 04:14:50;;;;;;;6.27;4.93;;;;;;;12.75;77.76;96894.59;4973738;28;20332;-59
2021/09/23 04:17:18;;;;;;;7.73;5.63;;;;;;;12.77;77.13;96890.69;4974173;28;20662;-52
2021/09/23 04:19:44;;;;;;;9.07;6.30;;;;;;;12.76;77.36;96881.19;4976587;28;20189;-59
2021/09/23 04:22:10;;;;;;;7.10;5.13;;;;;;;12.72;76.97;96889.78;4977623;28;20931;-53
2021/09/23 04:24:35;;;;;;;6.43;4.83;;;;;;;12.68;77.14;96880.72;4976714;28;20514;-52
2021/09/23 04:27:01;;;;;;;6.80;5.50;;;;;;;12.68;76.68;96880.72;4977391;28;20653;-58
2021/09/23 04:29:26;;;;;;;8.80;6.07;;;;;;;12.66;77.22;96880.13;4977265;28;20189;-52
2021/09/23 04:31:51;;;;;;;7.87;5.37;;;;;;;12.66;76.80;96882.78;4977528;28;20249;-52
2021/09/23 04:34:17;;;;;;;6.30;5.17;;;;;;;12.65;77.13;96876.69;4976841;28;20185;-59
2021/09/23 04:36:42;;;;;;;6.40;5.80;;;;;;;12.65;77.04;96860.88;4977131;28;20252;-59
2021/09/23 04:39:07;;;;;;;7.00;6.00;;;;;;;12.63;77.14;96867.41;4977030;28;20618;-59
2021/09/23 04:41:33;;;;;;;6.80;6.20;;;;;;;12.58;77.36;96870.72;4976952;28;20209;-59
2021/09/23 04:43:59;;;;;;;9.30;6.20;;;;;;;12.57;77.67;96868.31;4976685;28;20181;-52
2021/09/23 04:46:24;;;;;;;6.67;6.07;;;;;;;12.60;77.55;96862.56;4977078;28;20587;-52
2021/09/23 04:48:51;;;;;;;7.57;6.00;;;;;;;12.56;78.00;96850.88;4976768;28;20170;-53
2021/09/23 04:51:20;;;;;;;13.23;6.70;;;;;;;12.52;78.59;96850.50;4976870;28;20170;-59
2021/09/23 04:53:46;;;;;;;9.50;7.30;;;;;;;12.60;78.77;96847.56;4976590;28;20428;-59
2021/09/23 04:56:11;;;;;;;12.70;7.27;;;;;;;12.57;78.86;96845.38;4977034;28;20429;-59
2021/09/23 04:58:37;;;;;;;8.47;7.30;;;;;;;12.58;79.66;96846.97;4977221;28;20182;-58
2021/09/23 05:01:02;;;;;;;8.90;7.80;;;;;;;12.58;79.33;96848.81;4976886;28;20286;-52
2021/09/23 05:03:28;;;;;;;8.37;7.20;;;;;;;12.58;79.90;96852.25;4976311;28;20162;-52
2021/09/23 05:05:53;;;;;;;10.10;6.60;;;;;;;12.63;79.73;96851.59;4976608;28;20205;-52
2021/09/23 05:08:19;;;;;;;13.50;7.17;;;;;;;12.58;79.21;96846.97;4976494;28;20265;-59
2021/09/23 05:10:45;;;;;;;10.80;8.73;;;;;;;12.61;81.05;96846.53;4976630;28;20189;-58
2021/09/23 05:13:10;;;;;;;9.67;7.77;;;;;;;12.72;83.18;96847.59;4976247;28;20257;-59
2021/09/23 05:15:36;;;;;;;11.33;8.30;;;;;;;12.79;83.65;96843.81;4976151;28;20277;-59
2021/09/23 05:18:02;;;;;;;8.70;7.80;;;;;;;12.82;83.98;96851.28;4976219;28;20170;-53
2021/09/23 05:20:28;;;;;;;10.00;7.73;;;;;;;12.90;83.36;96850.16;4976462;28;20453;-59
2021/09/23 05:22:53;;;;;;;9.73;7.60;;;;;;;12.91;82.92;96841.19;4976166;28;21133;-58
2021/09/23 05:25:19;;;;;;;11.10;8.30;;;;;;;12.85;83.84;96836.81;4974888;28;20194;-52
2021/09/23 05:27:44;;;;;;;8.20;7.20;;;;;;;12.99;83.20;96832.94;4976188;28;20178;-52
2021/09/23 05:30:12;;;;;;;7.53;6.67;;;;;;;12.98;83.28;96831.34;4975692;28;20174;-52
2021/09/23 05:32:38;;;;;;;9.10;7.40;;;;;;;13.00;83.29;96824.81;4975508;28;20189;-53
2021/09/23 05:35:05;;;;;;;9.87;8.97;;;;;;;13.04;83.13;96818.06;4975981;28;20432;-52
2021/09/23 05:37:30;;;;;;;11.07;9.17;;;;;;;13.11;82.77;96818.75;4976023;28;20417;-59
2021/09/23 05:39:56;;;;;;;12.37;8.13;;;;;;;13.12;83.21;96815.06;4976114;28;20460;-59
2021/09/23 05:42:21;;;;;;;9.50;7.67;;;;;;;13.22;82.82;96812.69;4976183;28;20181;-52
2021/09/23 05:44:46;;;;;;;10.63;8.27;;;;;;;13.24;82.99;96801.88;4975234;28;20628;-59
2021/09/23 05:47:12;;;;;;;9.97;8.07;;;;;;;13.30;83.04;96803.59;4976000;28;20174;-52
2021/09/23 05:49:37;;;;;;;8.50;7.70;;;;;;;13.31;83.31;96798.09;4976010;28;20663;-59
2021/09/23 05:52:03;;;;;;;9.30;8.10;;;;;;;13.17;84.04;96791.44;4976314;28;20185;-52
2021/09/23 05:54:30;;;;;;;9.00;7.70;;;;;;;13.01;84.46;96786.00;4975383;28;20173;-59
2021/09/23 05:56:55;;;;;;;8.47;7.67;;;;;;;13.11;84.94;96784.47;4975863;28;20440;-52
2021/09/23 05:59:24;;;;;;;8.77;7.30;;;;;;;13.10;84.53;96784.66;4975682;28;20792;-58
2021/09/23 06:01:49;;;;;;;7.87;7.00;;;;;;;13.17;84.39;96785.38;4975648;28;20567;-59
2021/09/23 06:04:15;;;;;;;10.97;6.90;;;;;;;13.32;84.45;96793.59;4975220;28;20405;-59
2021/09/23 06:06:40;;;;;;;7.80;7.00;;;;;;;13.33;84.03;96790.72;4975428;28;20194;-59
2021/09/23 06:09:05;;;;;;;8.40;6.80;;;;;;;13.41;83.56;96798.31;4975588;28;20170;-52
2021/09/23 06:11:32;;;;;;;9.73;6.00;;;;;;;13.43;83.66;96792.78;4975625;28;20172;-52
2021/09/23 06:13:58;;;;;;;7.00;6.30;;;;;;;13.36;83.95;96789.47;4974997;28;20197;-52
2021/09/23 06:16:23;;;;;;;8.27;6.83;;;;;;;13.38;84.41;96788.22;4974867;28;20489;-52
2021/09/23 06:18:49;;;;;;;7.73;7.03;;;;;;;13.35;85.16;96793.94;4975490;28;20229;-59
2021/09/23 06:21:14;;;;;;;9.97;6.30;;;;;;;13.43;84.46;96790.13;4975224;28;20204;-51
2021/09/23 06:23:40;;;;;;;11.20;7.10;;;;;;;13.39;84.62;96794.28;4974887;28;20182;-59
2021/09/23 06:26:05;;;;;;;8.70;6.37;;;;;;;13.42;84.67;96791.19;4975078;28;20205;-52
2021/09/23 06:28:31;;;;;;;9.90;6.57;;;;;;;13.68;83.77;96792.50;4975356;28;20656;-52
2021/09/23 06:30:58;;;;;;;7.67;5.93;;;;;;;13.58;83.74;96789.66;4974422;28;20186;-58
2021/09/23 06:33:24;;;;;;;8.17;6.87;;;;;;;13.51;84.04;96794.25;4974842;28;20177;-53
2021/09/23 06:35:49;;;;;;;9.00;6.60;;;;;;;13.71;83.54;96794.69;4975187;28;20967;-59
2021/09/23 06:38:15;;;;;;;7.70;7.00;;;;;;;13.86;82.95;96801.03;4974797;28;20264;-52
2021/09/23 06:40:40;;;;;;;7.43;6.23;;;;;;;13.99;82.74;96806.06;4975121;28;20569;-52
2021/09/23 06:43:06;;;;;;;7.27;6.57;;;;;;;14.11;82.79;96806.81;4974673;28;20641;-59
2021/09/23 06:45:32;;;;;;;8.60;7.20;;;;;;;13.94;82.71;96815.72;4974562;28;20292;-53
2021/09/23 06:47:57;;;;;;;8.10;7.30;;;;;;;14.04;82.63;96815.94;4975063;28;20178;-52
2021/09/23 06:50:22;;;;;;;8.50;7.33;;;;;;;14.10;81.90;96809.69;4974850;28;20622;-52
2021/09/23 06:52:48;;;;;;;7.70;6.67;;;;;;;14.01;82.47;96809.28;4974512;28;20169;-52
2021/09/23 06:55:13;;;;;;;9.90;6.93;;;;;;;13.96;83.00;96816.28;4974907;28;20256;-59
2021/09/23 06:57:39;;;;;;;8.33;6.20;;;;;;;14.03;81.95;96804.56;4973701;28;20248;-59
2021/09/23 07:00:06;;;;;;;8.40;6.60;;;;;;;14.10;81.63;96807.84;4974339;28;20186;-59
2021/09/23 07:02:31;;;;;;;8.23;6.63;;;;;;;14.23;81.47;96809.41;4973640;28;20186;-59
2021/09/23 07:04:56;;;;;;;7.43;6.63;;;;;;;14.26;81.33;96808.91;4974209;28;20527;-53
2021/09/23 07:07:22;;;;;;;7.53;6.70;;;;;;;14.27;81.02;96813.22;4974690;28;20178;-52
2021/09/23 07:09:47;;;;;;;7.03;5.87;;;;;;;14.31;79.88;96820.41;4974830;28;20174;-59
2021/09/23 07:12:13;;;;;;;7.20;6.50;;;;;;;14.43;80.32;96807.97;4974764;28;20653;-59
2021/09/23 07:14:40;;;;;;;6.97;6.27;;;;;;;14.53;80.69;96809.97;4973849;28;20260;-59
2021/09/23 07:17:05;;;;;;;7.73;6.70;;;;;;;14.41;80.18;96820.63;4974725;28;20421;-59
2021/09/23 07:19:31;;;;;;;6.57;5.93;;;;;;;14.40;80.24;96815.56;4974569;28;20418;-59
2021/09/23 07:21:57;;;;;;;8.97;6.93;;;;;;;14.46;80.59;96813.81;4974631;28;20289;-52
2021/09/23 07:24:23;;;;;;;6.83;5.73;;;;;;;14.46;80.16;96824.41;4974267;28;20170;-57
2021/09/23 07:26:49;;;;;;;8.80;5.70;;;;;;;14.61;80.55;96819.34;4974645;28;20793;-52
2021/09/23 07:29:16;;;;;;;6.70;5.43;;;;;;;14.60;79.26;96821.22;4974145;28;20252;-58
2021/09/23 07:31:45;;;;;;;6.30;5.70;;;;;;;14.59;79.59;96818.78;4974385;28;20417;-59
2021/09/23 07:34:12;;;;;;;6.10;5.33;;;;;;;14.60;79.64;96812.47;4974351;28;20409;-59
2021/09/23 07:36:39;;;;;;;6.83;6.13;;;;;;;14.39;79.54;96822.69;4974146;28;20880;-59
2021/09/23 07:39:07;;;;;;;7.17;6.10;;;;;;;14.76;78.75;96809.03;4974478;28;20551;-52
2021/09/23 07:41:34;;;;;;;8.17;6.20;;;;;;;14.75;78.75;96820.63;4974421;28;20492;-59
2021/09/23 07:43:59;;;;;;;7.27;6.13;;;;;;;14.68;78.53;96818.16;4973890;28;20409;-59
2021/09/23 07:46:25;;;;;;;6.60;6.00;;;;;;;14.79;78.88;96812.00;4974428;28;20433;-59
2021/09/23 07:48:53;;;;;;;8.20;5.57;;;;;;;14.90;78.89;96826.97;4974339;28;20689;-53
2021/09/23 07:51:22;;;;;;;6.93;5.77;;;;;;;14.89;77.64;96828.00;4973826;28;20189;-52
2021/09/23 07:53:47;;;;;;;6.93;5.30;;;;;;;14.87;78.24;96824.03;4975339;28;20417;-59
2021/09/23 07:56:13;;;;;;;6.40;5.80;;;;;;;14.90;78.26;96823.53;4977694;28;20917;-53
2021/09/23 07:58:38;;;;;;;6.37;5.80;;;;;;;15.02;78.80;96822.41;4978062;28;20178;-53
2021/09/23 08:01:04;;;;;;;7.03;5.00;;;;;;;15.08;78.48;96821.44;4977770;28;20289;-59
2021/09/23 08:03:29;;;;;;;6.17;5.50;;;;;;;15.12;77.30;96824.41;4977548;28;20715;-52
2021/09/23 08:05:55;;;;;;;5.63;5.00;;;;;;;15.01;77.68;96815.50;4977357;28;20677;-59
2021/09/23 08:08:20;;;;;;;7.40;5.07;;;;;;;15.36;77.36;96825.81;4977919;28;20181;-52
2021/09/23 08:10:46;;;;;;;4.50;4.17;;;;;;;15.51;76.03;96827.91;4977659;28;20177;-58
2021/09/23 08:13:12;;;;;;;4.90;4.47;;;;;;;15.69;76.09;96827.59;4977247;28;20269;-52
2021/09/23 08:15:37;;;;;;;5.77;4.50;;;;;;;15.65;75.83;96824.66;4977687;28;20253;-52
2021/09/23 08:18:03;;;;;;;6.60;5.90;;;;;;;15.79;75.31;96827.72;4977475;28;20429;-53
2021/09/23 08:20:28;;;;;;;5.90;4.90;;;;;;;15.73;75.26;96824.22;4977147;28;20280;-52
2021/09/23 08:22:54;;;;;;;4.30;4.00;;;;;;;15.91;74.40;96826.56;4977417;28;20344;-59
2021/09/23 08:25:19;;;;;;;5.13;4.27;;;;;;;16.07;73.58;96816.94;4977342;28;20190;-59
2021/09/23 08:27:45;;;;;;;9.37;3.97;;;;;;;15.95;73.40;96816.25;4977291;28;20174;-52
2021/09/23 08:30:10;;;;;;;4.20;3.90;;;;;;;16.28;73.38;96816.09;4977320;28;20225;-52
2021/09/23 08:32:36;;;;;;;4.50;3.80;;;;;;;16.38;72.96;96822.28;4977003;28;20226;-58
2021/09/23 08:35:06;;;;;;;4.50;4.10;;;;;;;16.26;72.56;96819.00;4976994;28;20220;-59
2021/09/23 08:37:35;;;;;;;5.13;4.30;;;;;;;16.41;72.37;96810.38;4977049;28;20511;-59
2021/09/23 08:40:07;;;;;;;3.90;3.60;;;;;;;16.56;72.28;96809.75;4977151;28;20428;-53
2021/09/23 08:42:33;;;;;;;5.50;4.27;;;;;;;16.52;72.35;96814.78;4977301;28;20810;-52
2021/09/23 08:44:59;;;;;;;4.07;3.60;;;;;;;16.78;72.24;96808.63;4976752;28;20484;-53
2021/09/23 08:47:25;;;;;;;4.50;4.20;;;;;;;16.56;70.98;96799.16;4977217;28;20228;-52
2021/09/23 08:49:50;;;;;;;5.90;4.20;;;;;;;16.82;71.20;96798.28;4976912;28;20430;-53
2021/09/23 08:52:16;;;;;;;7.17;4.03;;;;;;;16.81;71.64;96802.00;4977124;28;20263;-52
2021/09/23 08:54:41;;;;;;;4.27;3.37;;;;;;;17.00;71.37;96803.22;4976450;28;20170;-58
2021/09/23 08:57:07;;;;;;;5.47;3.60;;;;;;;17.06;69.15;96802.19;4977009;28;21041;-59
2021/09/23 08:59:32;;;;;;;4.00;3.60;;;;;;;17.16;70.08;96797.75;4976856;28;20178;-59
2021/09/23 09:01:59;;;;;;;3.63;3.33;;;;;;;17.36;69.36;96794.41;4976845;28;20201;-59
2021/09/23 09:04:32;;;;;;;4.10;3.53;;;;;;;17.40;69.26;96796.31;4975418;28;20182;-53
2021/09/23 09:07:00;;;;;;;3.57;3.00;;;;;;;17.40;68.55;96800.81;4976262;28;20413;-53
2021/09/23 09:09:25;;;;;;;4.70;2.90;;;;;;;17.53;67.97;96800.38;4976578;28;20492;-59
2021/09/23 09:11:56;;;;;;;5.40;3.30;;;;;;;17.59;67.76;96799.38;4976618;28;20501;-52
2021/09/23 09:14:30;;;;;;;4.90;3.40;;;;;;;17.74;67.95;96793.28;4976268;28;20174;-59
2021/09/23 09:17:04;;;;;;;3.80;2.90;;;;;;;17.70;65.20;96798.31;4976678;28;20431;-59
2021/09/23 09:19:43;;;;;;;3.13;2.63;;;;;;;17.68;65.75;96792.50;4976187;28;20430;-54
2021/09/23 09:22:13;;;;;;;2.83;2.63;;;;;;;17.69;67.07;96787.97;4976033;28;20469;-53
2021/09/23 09:24:53;;;;;;;3.30;2.90;;;;;;;17.80;66.42;96776.31;4976166;28;20402;-59
2021/09/23 09:27:30;;;;;;;3.93;2.60;;;;;;;18.01;66.52;96768.13;4976498;28;20772;-59
2021/09/23 09:29:57;;;;;;;2.70;2.50;;;;;;;17.94;65.06;96772.09;4976252;28;20492;-53
2021/09/23 09:32:47;;;;;;;2.40;2.20;;;;;;;17.90;66.07;96771.03;4976146;28;20924;-53
2021/09/23 09:35:23;;;;;;;3.93;2.63;;;;;;;18.30;66.49;96763.13;4975902;28;20453;-59
2021/09/23 09:37:53;;;;;;;2.77;2.57;;;;;;;18.39;64.43;96764.22;4976188;28;20435;-59
2021/09/23 09:40:25;;;;;;;4.63;2.73;;;;;;;18.45;64.70;96764.00;4975858;28;20476;-59
2021/09/23 09:42:53;;;;;;;3.40;3.10;;;;;;;18.44;62.92;96759.72;4976096;28;20437;-53
2021/09/23 09:45:20;;;;;;;3.93;2.70;;;;;;;18.65;63.23;96765.88;4975904;28;20457;-53
2021/09/23 09:47:52;;;;;;;2.90;2.70;;;;;;;18.74;63.17;96758.13;4976054;28;20425;-60
2021/09/23 09:50:19;;;;;;;2.80;2.53;;;;;;;18.93;62.55;96751.22;4975929;28;20435;-59
2021/09/23 09:53:01;;;;;;;2.67;2.47;;;;;;;18.89;62.97;96747.47;4975664;28;20902;-53
2021/09/23 09:55:29;;;;;;;2.73;2.53;;;;;;;18.99;61.57;96742.13;4975902;28;20806;-53
2021/09/23 09:57:55;;;;;;;2.93;2.40;;;;;;;19.07;61.21;96746.91;4975510;28;20547;-52
2021/09/23 10:00:22;;;;;;;2.70;2.50;;;;;;;19.23;60.83;96746.63;4975667;28;21023;-60
2021/09/23 10:02:48;;;;;;;2.70;2.27;;;;;;;19.39;60.61;96737.53;4975276;28;20205;-59
2021/09/23 10:05:16;;;;;;;2.90;2.70;;;;;;;19.40;60.03;96741.00;4975596;28;20464;-59
2021/09/23 10:07:49;;;;;;;2.87;2.67;;;;;;;19.40;59.33;96728.47;4975523;28;20421;-53
2021/09/23 10:10:16;;;;;;;3.90;2.83;;;;;;;19.46;59.93;96735.38;4975654;28;20412;-53
2021/09/23 10:12:43;;;;;;;2.70;2.20;;;;;;;19.47;60.72;96733.50;4974905;28;20426;-59
2021/09/23 10:15:16;;;;;;;3.20;2.63;;;;;;;19.65;61.02;96721.44;4975128;28;20508;-53
2021/09/23 10:17:44;;;;;;;2.90;2.70;;;;;;;19.77;61.06;96714.69;4975200;28;20781;-59
2021/09/23 10:20:10;;;;;;;3.80;2.57;;;;;;;19.86;60.07;96718.41;4975334;28;20413;-53
2021/09/23 10:22:36;;;;;;;2.97;2.70;;;;;;;20.06;60.48;96718.28;4974959;28;20413;-54
2021/09/23 10:25:05;;;;;;;2.87;2.13;;;;;;;20.22;56.47;96711.78;4975151;28;20528;-59
2021/09/23 10:30:41;;;;;;;3.90;2.33;;;;;;;20.65;58.31;96714.66;4978951;28;20418;-53
2021/09/23 10:33:07;;;;;;;2.33;2.13;;;;;;;20.76;57.58;96719.66;4974952;28;20520;-60
2021/09/23 10:35:33;;;;;;;2.50;2.40;;;;;;;20.57;54.75;96715.25;4975243;28;20963;-53
2021/09/23 10:38:07;;;;;;;2.30;2.00;;;;;;;20.62;54.36;96713.34;4975160;28;20193;-59
2021/09/23 10:40:35;;;;;;;2.23;2.03;;;;;;;20.72;55.53;96715.94;4975053;28;20464;-53
2021/09/23 10:43:09;;;;;;;2.40;2.20;;;;;;;20.87;54.74;96715.78;4974157;28;20422;-53
2021/09/23 10:45:35;;;;;;;3.90;2.50;;;;;;;20.89;53.85;96710.19;4975026;28;20438;-59
2021/09/23 10:48:02;;;;;;;2.40;2.27;;;;;;;21.00;53.29;96709.00;4975074;28;20436;-59
2021/09/23 10:50:30;;;;;;;2.10;2.00;;;;;;;21.07;51.75;96712.94;4975014;28;20170;-60
2021/09/23 10:52:57;;;;;;;2.40;2.20;;;;;;;21.01;50.19;96716.78;4974642;28;20541;-60
2021/09/23 10:55:24;;;;;;;2.03;1.90;;;;;;;21.25;51.15;96722.91;4974840;28;20429;-59
2021/09/23 10:57:52;;;;;;;2.70;2.10;;;;;;;21.21;50.23;96713.91;4974449;28;20460;-53
2021/09/23 11:00:29;;;;;;;2.10;2.00;;;;;;;21.31;48.99;96719.13;4974873;28;20467;-53
2021/09/23 11:02:55;;;;;;;2.37;2.17;;;;;;;21.17;47.62;96723.56;4973297;28;20549;-59
2021/09/23 11:05:22;;;;;;;2.50;2.20;;;;;;;21.28;47.24;96719.69;4974716;28;20789;-53
2021/09/23 11:07:50;;;;;;;1.80;1.70;;;;;;;21.39;47.51;96713.16;4974780;28;20416;-54
2021/09/23 11:10:18;;;;;;;2.30;2.10;;;;;;;21.41;47.87;96710.19;4974819;28;20472;-53
2021/09/23 11:12:51;;;;;;;1.90;1.80;;;;;;;21.65;48.09;96710.16;4974002;28;20437;-53
2021/09/23 11:15:19;;;;;;;2.07;1.97;;;;;;;21.76;47.40;96701.69;4974617;28;20425;-53
2021/09/23 11:17:46;;;;;;;2.27;2.03;;;;;;;21.88;47.77;96704.00;4974750;28;20423;-59
2021/09/23 11:20:16;;;;;;;2.50;2.30;;;;;;;22.01;46.99;96687.22;4974185;28;20436;-53
2021/09/23 11:22:47;;;;;;;2.20;2.00;;;;;;;22.10;47.41;96688.94;4974313;28;20444;-53
2021/09/23 11:25:25;;;;;;;2.90;2.30;;;;;;;22.33;48.13;96689.94;4973474;28;20461;-59
2021/09/23 11:27:51;;;;;;;1.80;1.70;;;;;;;22.30;45.75;96690.53;4974713;28;20516;-60
2021/09/23 11:30:24;;;;;;;1.90;1.80;;;;;;;22.47;46.48;96690.78;4978446;28;20740;-60
2021/09/23 11:32:53;;;;;;;3.60;2.40;;;;;;;22.54;45.45;96679.72;4978172;28;20429;-60